Time;durP1;ratioP1;P1;durP2;ratioP2;P2;SDS_P1;SDS_P2;PMS_P1;PMS_P2;Temp;Humidity;BMP_temperature;BMP_pressure;BME280_temperature;BME280_humidity;BME280_pressure;Samples;Min_cycle;Max_cycle;Signal;HPM_P1;HPM_P2
2022/03/14 00:01:36;;;;;;;14.40;6.90;;;;;-0.10;98868.00;;;;111082;1247;42102;-66
2022/03/14 00:04:17;;;;;;;16.50;7.70;;;;;-0.12;98875.20;;;;111060;1247;41144;-65
2022/03/14 00:07:02;;;;;;;17.10;8.20;;;;;-0.20;98868.00;;;;111082;1248;42162;-65
2022/03/14 00:09:46;;;;;;;16.90;7.90;;;;;-0.20;98873.20;;;;111090;1247;41139;-65
2022/03/14 00:12:28;;;;;;;17.70;7.80;;;;;-0.30;98872.80;;;;111047;1247;41981;-66
2022/03/14 00:15:11;;;;;;;;;;;;;-0.30;98872.60;;;;110817;1247;42337;-65
2022/03/14 00:17:52;;;;;;;19.10;7.40;;;;;-0.40;98876.60;;;;110892;1247;41260;-66
2022/03/14 00:20:31;;;;;;;14.20;6.80;;;;;-0.40;98881.00;;;;110942;1247;41966;-67
2022/03/14 00:23:12;;;;;;;14.50;6.10;;;;;-0.48;98880.20;;;;111129;1247;41141;-68
2022/03/14 00:25:53;;;;;;;13.50;6.50;;;;;-0.50;98879.60;;;;110871;1248;41139;-67
2022/03/14 00:28:45;;;;;;;15.60;7.50;;;;;-0.58;98884.40;;;;110912;1247;41855;-66
2022/03/14 00:31:28;;;;;;;17.90;8.30;;;;;-0.60;98881.60;;;;110996;1248;41608;-64
2022/03/14 00:34:09;;;;;;;;;;;;;-0.60;98887.80;;;;110971;1247;41247;-67
2022/03/14 00:36:49;;;;;;;18.90;8.40;;;;;-0.70;98888.60;;;;111043;1247;42460;-66
2022/03/14 00:39:32;;;;;;;17.80;9.30;;;;;-0.70;98886.20;;;;111066;1247;41258;-64
2022/03/14 00:42:12;;;;;;;16.50;8.20;;;;;-0.72;98886.80;;;;111102;1247;41207;-66
2022/03/14 00:45:07;;;;;;;16.30;8.30;;;;;-0.80;98890.80;;;;110881;1247;41147;-65
2022/03/14 00:47:44;;;;;;;17.10;8.60;;;;;-0.80;98890.80;;;;110845;1249;41601;-63
2022/03/14 00:50:36;;;;;;;19.70;9.50;;;;;-0.90;98886.00;;;;110866;1247;41219;-66
2022/03/14 00:53:16;;;;;;;17.10;8.30;;;;;-0.90;98889.60;;;;110975;1247;41921;-67
2022/03/14 00:55:58;;;;;;;21.90;9.00;;;;;-1.00;98888.40;;;;110910;1247;41874;-65
2022/03/14 00:58:35;;;;;;;18.90;8.30;;;;;-1.04;98893.20;;;;111048;1248;41123;-65
2022/03/14 01:01:18;;;;;;;15.70;8.40;;;;;-1.10;98893.60;;;;110858;1249;41149;-64
2022/03/14 01:03:56;;;;;;;15.50;7.90;;;;;-1.10;98892.00;;;;110987;1247;41724;-64
2022/03/14 01:06:34;;;;;;;19.30;9.20;;;;;-1.10;98899.40;;;;111032;1248;41139;-65
2022/03/14 01:09:20;;;;;;;18.20;9.30;;;;;-1.10;98898.80;;;;110979;1247;41333;-66
2022/03/14 01:12:04;;;;;;;18.40;9.00;;;;;-1.10;98902.00;;;;111051;1247;41156;-64
2022/03/14 01:14:42;;;;;;;22.80;10.30;;;;;-1.10;98895.40;;;;110900;1247;41994;-63
2022/03/14 01:17:20;;;;;;;;;;;;;-1.10;98901.20;;;;111032;1248;41596;-65
2022/03/14 01:19:59;;;;;;;18.30;7.50;;;;;-1.20;98909.60;;;;111092;1247;41347;-66
2022/03/14 01:22:38;;;;;;;16.70;7.30;;;;;-1.20;98914.00;;;;111055;1247;41186;-66
2022/03/14 01:25:16;;;;;;;16.90;8.60;;;;;-1.24;98908.40;;;;110951;1249;41130;-65
2022/03/14 01:27:54;;;;;;;17.00;8.00;;;;;-1.30;98912.60;;;;110990;1248;41975;-66
2022/03/14 01:30:39;;;;;;;18.30;8.90;;;;;-1.30;98916.00;;;;111036;1248;41164;-65
2022/03/14 01:33:19;;;;;;;16.70;7.80;;;;;-1.30;98916.20;;;;110957;1247;41548;-66
2022/03/14 01:35:57;;;;;;;19.50;9.00;;;;;-1.30;98914.20;;;;110859;1249;41624;-66
2022/03/14 01:38:38;;;;;;;17.40;8.50;;;;;-1.30;98914.00;;;;111063;1248;41588;-65
2022/03/14 01:41:22;;;;;;;19.10;8.80;;;;;-1.30;98918.40;;;;110881;1250;41158;-66
2022/03/14 01:44:05;;;;;;;20.20;9.50;;;;;-1.30;98915.40;;;;110992;1248;41254;-66
2022/03/14 01:46:45;;;;;;;21.00;10.70;;;;;-1.30;98917.20;;;;111037;1248;41430;-66
2022/03/14 01:49:22;;;;;;;20.50;10.50;;;;;-1.30;98915.20;;;;111088;1247;41578;-66
2022/03/14 01:52:05;;;;;;;19.60;10.60;;;;;-1.38;98919.00;;;;110718;1250;42374;-66
2022/03/14 01:54:49;;;;;;;20.30;10.30;;;;;-1.40;98913.00;;;;110841;1250;41260;-65
2022/03/14 01:57:35;;;;;;;22.10;11.80;;;;;-1.40;98919.40;;;;110805;1248;41130;-64
2022/03/14 02:00:14;;;;;;;23.20;10.30;;;;;-1.50;98923.00;;;;110961;1247;41171;-65
2022/03/14 02:02:52;;;;;;;22.60;9.70;;;;;-1.50;98927.20;;;;111048;1247;41762;-65
2022/03/14 02:05:33;;;;;;;17.90;8.60;;;;;-1.50;98927.60;;;;110964;1248;41291;-66
2022/03/14 02:08:12;;;;;;;18.20;9.10;;;;;-1.52;98935.80;;;;111101;1247;41295;-65
2022/03/14 02:10:53;;;;;;;;;;;;;-1.60;98937.40;;;;111080;1247;41151;-65
2022/03/14 02:13:40;;;;;;;21.60;10.30;;;;;-1.60;98943.00;;;;111039;1247;41255;-65
2022/03/14 02:16:17;;;;;;;19.60;9.90;;;;;-1.60;98945.60;;;;111039;1247;42528;-66
2022/03/14 02:18:53;;;;;;;24.60;10.00;;;;;-1.60;98947.00;;;;110920;1249;41253;-65
2022/03/14 02:21:42;;;;;;;21.80;10.80;;;;;-1.60;98944.80;;;;110953;1248;41611;-64
2022/03/14 02:24:33;;;;;;;23.70;10.90;;;;;-1.62;98947.40;;;;111020;1249;41142;-66
2022/03/14 02:27:15;;;;;;;20.50;9.90;;;;;-1.70;98948.80;;;;111143;1247;41162;-68
2022/03/14 02:30:04;;;;;;;;;;;;;;;;;;;;;
2022/03/14 02:32:51;;;;;;;21.30;10.10;;;;;-1.74;98952.40;;;;111106;1247;41250;-65
2022/03/14 02:35:35;;;;;;;18.70;9.20;;;;;-1.80;98957.40;;;;110992;1247;42519;-66
2022/03/14 02:38:19;;;;;;;21.10;10.40;;;;;-1.80;98948.80;;;;111034;1247;41635;-65
2022/03/14 02:41:01;;;;;;;21.60;10.70;;;;;-1.90;98948.60;;;;111067;1247;42211;-65
2022/03/14 02:43:41;;;;;;;17.90;9.70;;;;;-1.90;98948.60;;;;111119;1247;42263;-66
2022/03/14 02:46:21;;;;;;;21.90;9.80;;;;;-2.00;98947.20;;;;111092;1247;41984;-66
2022/03/14 02:49:11;;;;;;;16.80;8.30;;;;;-2.00;98946.00;;;;110895;1248;41716;-65
2022/03/14 02:51:48;;;;;;;;;;;;;-2.00;98949.20;;;;111057;1248;41143;-64
2022/03/14 02:54:30;;;;;;;14.10;7.20;;;;;-2.10;98955.20;;;;111084;1247;41980;-65
2022/03/14 02:57:09;;;;;;;15.90;7.40;;;;;-2.10;98957.20;;;;110998;1247;41150;-65
2022/03/14 02:59:57;;;;;;;19.70;7.50;;;;;-2.10;98954.80;;;;111117;1247;42521;-65
2022/03/14 03:02:37;;;;;;;16.10;7.10;;;;;-2.10;98955.60;;;;111097;1247;41138;-66
2022/03/14 03:05:16;;;;;;;18.00;8.60;;;;;-2.16;98956.40;;;;111079;1247;41126;-66
2022/03/14 03:07:59;;;;;;;18.60;7.50;;;;;-2.20;98967.20;;;;110828;1248;41137;-66
2022/03/14 03:10:44;;;;;;;15.90;7.40;;;;;-2.20;98963.40;;;;110938;1247;42133;-66
2022/03/14 03:13:27;;;;;;;16.70;7.30;;;;;-2.20;98963.60;;;;111147;1247;41802;-66
2022/03/14 03:16:16;;;;;;;14.80;6.90;;;;;-2.20;98963.60;;;;111103;1247;41426;-67
2022/03/14 03:18:54;;;;;;;15.60;7.00;;;;;-2.20;98966.00;;;;111107;1247;41152;-66
2022/03/14 03:21:34;;;;;;;16.10;7.00;;;;;-2.20;98970.00;;;;111018;1247;41157;-66
2022/03/14 03:24:10;;;;;;;14.10;6.80;;;;;-2.24;98965.80;;;;110910;1247;41637;-65
2022/03/14 03:26:48;;;;;;;15.50;7.20;;;;;-2.30;98970.60;;;;110876;1250;41217;-65
2022/03/14 03:29:25;;;;;;;15.50;7.10;;;;;-2.30;98973.00;;;;111004;1248;41152;-66
2022/03/14 03:32:01;;;;;;;17.60;7.10;;;;;-2.38;98977.60;;;;111006;1247;41146;-65
2022/03/14 03:34:41;;;;;;;15.30;6.60;;;;;-2.40;98979.20;;;;111075;1248;41485;-65
2022/03/14 03:37:17;;;;;;;15.20;7.00;;;;;-2.40;98987.60;;;;110854;1248;42398;-66
2022/03/14 03:39:55;;;;;;;17.50;7.40;;;;;-2.50;98988.20;;;;111079;1247;42215;-65
2022/03/14 03:42:34;;;;;;;15.00;6.60;;;;;-2.50;98992.80;;;;111009;1248;41968;-64
2022/03/14 03:45:18;;;;;;;16.60;7.30;;;;;-2.50;99003.20;;;;110879;1248;41258;-66
2022/03/14 03:47:55;;;;;;;18.70;9.80;;;;;-2.60;98998.40;;;;111130;1247;41206;-65
2022/03/14 03:50:34;;;;;;;;;;;;;-2.60;99007.00;;;;111095;1247;41146;-66
2022/03/14 03:53:17;;;;;;;19.70;9.70;;;;;-2.64;99004.00;;;;110989;1247;41551;-66
2022/03/14 03:55:54;;;;;;;17.60;9.10;;;;;-2.70;99009.60;;;;111086;1247;41242;-66
2022/03/14 03:58:47;;;;;;;20.50;9.40;;;;;-2.70;99006.00;;;;110953;1247;41251;-65
2022/03/14 04:01:25;;;;;;;22.40;10.70;;;;;-2.74;99008.80;;;;111048;1247;41157;-66
2022/03/14 04:04:08;;;;;;;21.10;10.10;;;;;-2.80;99014.80;;;;110823;1248;41635;-65
2022/03/14 04:06:53;;;;;;;19.90;9.50;;;;;-2.80;99023.60;;;;111056;1248;41249;-65
2022/03/14 04:09:38;;;;;;;20.30;8.90;;;;;-2.80;99027.60;;;;110892;1247;41632;-65
2022/03/14 04:12:16;;;;;;;20.30;8.90;;;;;-2.88;99029.00;;;;111149;1247;41119;-64
2022/03/14 04:14:58;;;;;;;20.00;9.00;;;;;-2.90;99034.80;;;;110986;1247;41148;-66
2022/03/14 04:17:39;;;;;;;22.20;10.50;;;;;-2.90;99038.00;;;;111038;1248;41572;-67
2022/03/14 04:20:21;;;;;;;21.00;10.60;;;;;-2.90;99035.60;;;;111040;1247;41127;-65
2022/03/14 04:22:58;;;;;;;18.70;9.10;;;;;-2.92;99039.00;;;;111115;1247;41469;-65
2022/03/14 04:25:38;;;;;;;22.50;10.60;;;;;-3.00;99040.60;;;;111009;1248;41260;-65
2022/03/14 04:28:16;;;;;;;16.90;9.40;;;;;-3.00;99046.60;;;;111079;1247;41143;-65
2022/03/14 04:30:57;;;;;;;19.60;9.40;;;;;-3.00;99040.60;;;;111090;1247;41170;-65
2022/03/14 04:33:41;;;;;;;22.20;9.30;;;;;-3.00;99046.60;;;;110929;1248;41319;-63
2022/03/14 04:36:32;;;;;;;19.50;8.80;;;;;-3.00;99046.80;;;;110904;1247;41615;-66
2022/03/14 04:39:11;;;;;;;17.70;8.50;;;;;-3.08;99050.40;;;;111124;1247;41252;-67
2022/03/14 04:41:55;;;;;;;19.50;9.10;;;;;-3.10;99048.80;;;;110994;1248;41267;-65
2022/03/14 04:44:36;;;;;;;19.30;9.70;;;;;-3.10;99051.00;;;;111100;1247;41268;-66
2022/03/14 04:47:18;;;;;;;20.20;10.20;;;;;-3.10;99055.80;;;;110759;1249;42274;-65
2022/03/14 04:49:55;;;;;;;20.50;10.20;;;;;-3.10;99059.80;;;;110976;1247;41353;-64
2022/03/14 04:52:39;;;;;;;18.90;9.20;;;;;-3.10;99060.40;;;;110957;1247;41260;-66
2022/03/14 04:55:20;;;;;;;17.20;7.90;;;;;-3.10;99071.40;;;;111030;1247;41153;-66
2022/03/14 04:58:05;;;;;;;16.60;8.10;;;;;-3.10;99065.60;;;;110908;1247;41609;-63
2022/03/14 05:00:56;;;;;;;15.20;8.00;;;;;-3.10;99070.00;;;;111077;1247;41616;-65
2022/03/14 05:03:42;;;;;;;19.90;8.70;;;;;-3.10;99064.00;;;;111063;1247;41144;-66
2022/03/14 05:06:22;;;;;;;16.80;8.00;;;;;-3.00;99067.80;;;;110919;1248;41126;-64
2022/03/14 05:09:12;;;;;;;;;;;;;-2.90;99065.40;;;;111015;1247;42055;-66
2022/03/14 05:11:53;;;;;;;18.10;8.40;;;;;-2.88;99069.20;;;;111077;1248;41242;-64
2022/03/14 05:14:31;;;;;;;15.00;7.40;;;;;-2.74;99065.80;;;;111047;1247;41603;-67
2022/03/14 05:17:11;;;;;;;16.30;8.10;;;;;-2.60;99074.80;;;;111114;1247;41602;-66
2022/03/14 05:19:58;;;;;;;17.70;8.30;;;;;-2.50;99075.20;;;;111113;1247;41559;-67
2022/03/14 05:22:51;;;;;;;15.80;7.20;;;;;-2.40;99073.60;;;;110938;1247;41265;-64
2022/03/14 05:25:31;;;;;;;18.20;8.00;;;;;-2.24;99077.40;;;;111008;1247;41364;-63
2022/03/14 05:28:21;;;;;;;18.00;7.80;;;;;-2.10;99076.40;;;;111108;1247;41127;-64
2022/03/14 05:31:03;;;;;;;16.00;8.30;;;;;-1.90;99074.00;;;;111032;1247;41180;-67
2022/03/14 05:33:40;;;;;;;21.10;10.80;;;;;-1.80;99072.00;;;;110803;1250;41463;-67
2022/03/14 05:36:25;;;;;;;23.70;9.90;;;;;-1.60;99078.40;;;;110704;1250;41140;-67
2022/03/14 05:39:01;;;;;;;28.60;12.30;;;;;-1.48;99073.60;;;;111024;1249;41933;-67
2022/03/14 05:41:55;;;;;;;25.40;12.50;;;;;-1.30;99073.80;;;;110945;1247;41562;-67
2022/03/14 05:44:32;;;;;;;24.40;12.10;;;;;-1.12;99072.20;;;;111050;1247;41582;-65
2022/03/14 05:47:09;;;;;;;22.20;10.80;;;;;-0.96;99075.40;;;;110859;1249;41226;-68
2022/03/14 05:49:46;;;;;;;20.30;9.90;;;;;-0.80;99075.80;;;;110998;1248;41153;-66
2022/03/14 05:52:23;;;;;;;17.30;8.80;;;;;-0.60;99076.40;;;;110797;1247;41501;-66
2022/03/14 05:55:05;;;;;;;15.90;8.70;;;;;-0.40;99083.80;;;;111031;1248;42520;-66
2022/03/14 05:57:45;;;;;;;17.40;8.80;;;;;-0.20;99080.20;;;;110955;1248;41152;-62
2022/03/14 06:00:23;;;;;;;21.10;8.90;;;;;0.00;99088.80;;;;111180;1247;41133;-64
2022/03/14 06:03:04;;;;;;;19.80;9.60;;;;;0.20;99086.40;;;;111090;1247;41130;-65
2022/03/14 06:05:40;;;;;;;21.10;10.30;;;;;0.40;99085.80;;;;110905;1250;41153;-66
2022/03/14 06:08:18;;;;;;;27.20;12.70;;;;;0.66;99079.00;;;;110951;1247;41152;-66
2022/03/14 06:11:07;;;;;;;25.30;12.60;;;;;0.90;99084.00;;;;111079;1247;41705;-65
2022/03/14 06:13:44;;;;;;;30.80;15.40;;;;;1.10;99085.60;;;;111097;1248;41489;-66
2022/03/14 06:16:29;;;;;;;31.30;16.40;;;;;1.30;99083.80;;;;110853;1248;41026;-68
2022/03/14 06:19:05;;;;;;;31.50;15.90;;;;;1.50;99090.20;;;;110985;1248;42163;-67
2022/03/14 06:21:47;;;;;;;31.90;15.10;;;;;1.70;99089.00;;;;110854;1248;41260;-68
2022/03/14 06:24:28;;;;;;;33.40;17.70;;;;;1.94;99092.00;;;;111084;1247;41916;-65
2022/03/14 06:27:05;;;;;;;30.50;15.50;;;;;2.16;99090.00;;;;111027;1248;41124;-64
2022/03/14 06:29:42;;;;;;;34.60;15.20;;;;;2.40;99090.20;;;;111007;1247;41133;-63
2022/03/14 06:32:37;;;;;;;38.30;19.10;;;;;2.68;99091.20;;;;110880;1250;41159;-66
2022/03/14 06:35:20;;;;;;;31.10;15.30;;;;;2.90;99093.20;;;;110890;1248;41127;-68
2022/03/14 06:37:57;;;;;;;42.30;20.00;;;;;3.02;99094.20;;;;110848;1248;41827;-66
2022/03/14 06:40:34;;;;;;;39.50;18.50;;;;;3.26;99094.00;;;;111127;1247;41149;-68
2022/03/14 06:43:17;;;;;;;36.80;16.60;;;;;3.42;99097.60;;;;111026;1249;41538;-64
2022/03/14 06:45:51;;;;;;;34.90;17.40;;;;;3.68;99097.80;;;;110901;1248;41725;-67
2022/03/14 06:48:31;;;;;;;26.10;12.30;;;;;3.90;99100.00;;;;110792;1250;41344;-64
2022/03/14 06:51:11;;;;;;;24.30;12.10;;;;;4.12;99100.80;;;;110979;1248;41268;-61
2022/03/14 06:53:51;;;;;;;23.70;11.70;;;;;4.30;99102.20;;;;110849;1249;41183;-61
2022/03/14 06:56:30;;;;;;;23.30;11.40;;;;;4.50;99092.00;;;;111002;1247;42538;-67
2022/03/14 06:59:09;;;;;;;21.20;10.10;;;;;4.74;99094.00;;;;110961;1248;41132;-63
2022/03/14 07:01:46;;;;;;;19.00;9.00;;;;;5.00;99096.00;;;;110575;1250;42276;-65
2022/03/14 07:04:28;;;;;;;20.90;9.20;;;;;5.30;99098.60;;;;110916;1249;40716;-64
2022/03/14 07:07:11;;;;;;;18.50;8.10;;;;;5.50;99096.80;;;;110803;1250;41248;-67
2022/03/14 07:09:50;;;;;;;16.60;7.50;;;;;5.60;99096.00;;;;111113;1248;41978;-63
2022/03/14 07:12:27;;;;;;;16.70;7.50;;;;;5.90;99095.60;;;;111143;1249;41191;-63
2022/03/14 07:15:04;;;;;;;16.70;8.40;;;;;6.20;99092.40;;;;110879;1249;41172;-65
2022/03/14 07:17:55;;;;;;;24.40;8.80;;;;;6.46;99094.40;;;;111019;1249;41139;-66
2022/03/14 07:20:29;;;;;;;19.00;8.40;;;;;6.60;99094.60;;;;110672;1250;41625;-67
2022/03/14 07:23:11;;;;;;;18.90;8.90;;;;;6.80;99097.60;;;;111135;1247;41151;-62
2022/03/14 07:26:08;;;;;;;20.70;8.50;;;;;6.96;99101.00;;;;111130;1247;41239;-66
2022/03/14 07:28:49;;;;;;;20.00;8.20;;;;;6.90;99098.00;;;;111133;1248;41969;-63
2022/03/14 07:31:30;;;;;;;16.70;7.90;;;;;7.00;99098.80;;;;110161;1247;1311053;-62
2022/03/14 07:34:06;;;;;;;16.80;9.30;;;;;7.30;99096.60;;;;111092;1248;41606;-64
2022/03/14 07:36:42;;;;;;;16.50;7.70;;;;;7.56;99099.20;;;;110896;1250;41261;-64
2022/03/14 07:39:17;;;;;;;17.30;7.70;;;;;7.70;99100.20;;;;111030;1247;41157;-65
2022/03/14 07:41:55;;;;;;;19.00;8.10;;;;;7.86;99101.40;;;;110854;1250;41158;-64
2022/03/14 07:44:31;;;;;;;16.10;7.40;;;;;7.90;99104.00;;;;110832;1250;41174;-63
2022/03/14 07:47:17;;;;;;;19.30;8.60;;;;;8.10;99102.20;;;;110918;1248;41686;-65
2022/03/14 07:50:01;;;;;;;16.20;7.80;;;;;8.00;99105.00;;;;111051;1248;41145;-65
2022/03/14 07:52:45;;;;;;;17.10;8.80;;;;;8.00;99104.00;;;;111074;1247;41722;-63
2022/03/14 07:55:27;;;;;;;16.50;7.20;;;;;8.10;99112.40;;;;111053;1248;41182;-65
2022/03/14 07:58:09;;;;;;;15.90;7.30;;;;;8.10;99112.40;;;;111125;1247;41252;-64
2022/03/14 08:00:54;;;;;;;14.60;7.30;;;;;8.10;99112.80;;;;111080;1246;42363;-64
2022/03/14 08:03:31;;;;;;;15.50;7.70;;;;;8.20;99106.00;;;;111011;1247;41632;-65
2022/03/14 08:06:10;;;;;;;13.40;6.50;;;;;8.36;99113.40;;;;110980;1249;41922;-64
2022/03/14 08:08:47;;;;;;;15.80;7.30;;;;;8.50;99113.40;;;;111053;1247;41155;-63
2022/03/14 08:11:29;;;;;;;14.60;6.90;;;;;8.80;99111.20;;;;111080;1248;41154;-66
2022/03/14 08:14:10;;;;;;;16.50;7.00;;;;;9.16;99112.20;;;;110957;1248;42040;-66
2022/03/14 08:16:48;;;;;;;14.60;6.90;;;;;9.40;99114.60;;;;111055;1247;41606;-64
2022/03/14 08:19:29;;;;;;;13.00;6.80;;;;;9.64;99111.80;;;;111115;1247;41142;-63
2022/03/14 08:22:03;;;;;;;13.00;6.40;;;;;9.88;99105.80;;;;110813;1247;41268;-67
2022/03/14 08:24:41;;;;;;;14.80;7.90;;;;;10.48;99102.20;;;;111030;1246;41138;-66
2022/03/14 08:27:23;;;;;;;13.50;6.70;;;;;12.38;99071.00;;;;110831;1250;41557;-64
2022/03/14 08:30:02;;;;;;;14.70;7.20;;;;;14.10;99060.40;;;;111037;1248;41181;-64
2022/03/14 08:32:41;;;;;;;18.40;8.60;;;;;15.60;99057.80;;;;111005;1248;42481;-63
2022/03/14 08:35:20;;;;;;;16.60;7.80;;;;;16.62;99052.80;;;;111064;1247;41199;-65
2022/03/14 08:37:56;;;;;;;16.10;7.60;;;;;17.24;99043.80;;;;111172;1247;40726;-62
2022/03/14 08:40:37;;;;;;;15.50;7.30;;;;;18.28;99042.00;;;;111015;1249;41130;-64
2022/03/14 08:43:13;;;;;;;12.30;6.50;;;;;19.34;99043.80;;;;111082;1247;41151;-63
2022/03/14 08:45:51;;;;;;;13.80;6.70;;;;;20.60;99035.60;;;;111111;1247;41239;-65
2022/03/14 08:48:27;;;;;;;14.00;7.30;;;;;21.82;99032.60;;;;111087;1247;41141;-63
2022/03/14 08:51:04;;;;;;;16.40;7.20;;;;;22.16;99033.20;;;;110891;1248;41133;-63
2022/03/14 08:53:47;;;;;;;15.80;6.30;;;;;22.34;99032.60;;;;111012;1248;41308;-63
2022/03/14 08:56:42;;;;;;;16.30;7.10;;;;;22.84;99037.60;;;;110994;1249;42549;-64
2022/03/14 08:59:27;;;;;;;15.60;8.00;;;;;23.20;99032.40;;;;111108;1248;41680;-64
2022/03/14 09:02:08;;;;;;;17.30;8.70;;;;;22.52;99035.60;;;;111089;1247;41610;-63
2022/03/14 09:04:50;;;;;;;16.20;7.80;;;;;21.70;99036.60;;;;111052;1247;41954;-62
2022/03/14 09:07:28;;;;;;;14.80;7.40;;;;;21.78;99039.60;;;;111009;1248;41702;-63
2022/03/14 09:10:14;;;;;;;14.70;7.70;;;;;21.60;99037.00;;;;110995;1248;41140;-62
2022/03/14 09:12:58;;;;;;;15.50;7.20;;;;;21.16;99039.40;;;;110849;1250;41190;-62
2022/03/14 09:15:47;;;;;;;15.40;6.90;;;;;21.22;99036.40;;;;111065;1247;42664;-65
2022/03/14 09:18:31;;;;;;;15.60;7.50;;;;;22.64;99034.80;;;;110974;1247;41496;-68
2022/03/14 09:21:08;;;;;;;13.90;6.50;;;;;23.44;99034.60;;;;111115;1247;41955;-67
2022/03/14 09:23:49;;;;;;;13.40;7.00;;;;;24.00;99034.40;;;;111051;1247;41373;-65
2022/03/14 09:26:39;;;;;;;18.90;8.10;;;;;24.66;99033.80;;;;111114;1248;41808;-65
2022/03/14 09:29:20;;;;;;;16.60;7.50;;;;;23.70;99033.40;;;;111188;1247;42414;-64
2022/03/14 09:31:56;;;;;;;14.50;6.70;;;;;23.54;99038.80;;;;111027;1247;41712;-67
2022/03/14 09:34:36;;;;;;;13.10;6.40;;;;;24.56;99029.20;;;;111055;1248;41484;-63
2022/03/14 09:37:14;;;;;;;15.40;7.60;;;;;25.68;99030.20;;;;111049;1248;41767;-63
2022/03/14 09:39:49;;;;;;;14.40;6.40;;;;;25.66;99032.00;;;;111078;1247;41146;-64
2022/03/14 09:42:29;;;;;;;11.80;5.80;;;;;25.76;99031.60;;;;111066;1248;41155;-65
2022/03/14 09:45:09;;;;;;;15.60;6.50;;;;;26.78;99032.60;;;;110932;1248;41199;-66
2022/03/14 09:47:48;;;;;;;11.60;6.00;;;;;27.36;99029.80;;;;111123;1245;41126;-67
2022/03/14 09:50:44;;;;;;;13.50;6.70;;;;;27.90;99027.00;;;;111075;1247;42473;-67
2022/03/14 09:53:28;;;;;;;12.70;6.10;;;;;27.70;99029.80;;;;110809;1249;40718;-64
2022/03/14 09:56:05;;;;;;;13.00;5.50;;;;;28.30;99026.20;;;;111158;1247;41251;-65
2022/03/14 09:58:45;;;;;;;11.80;5.90;;;;;29.14;99025.60;;;;110960;1247;41212;-66
2022/03/14 10:01:20;;;;;;;11.40;5.70;;;;;28.40;99023.60;;;;111130;1247;41392;-66
2022/03/14 10:04:14;;;;;;;11.80;5.70;;;;;28.62;99024.40;;;;111054;1247;41730;-65
2022/03/14 10:06:56;;;;;;;13.00;5.90;;;;;29.20;99025.40;;;;111117;1247;41151;-66
2022/03/14 10:09:34;;;;;;;14.50;6.20;;;;;29.90;99026.00;;;;111046;1247;42265;-69
2022/03/14 10:12:21;;;;;;;13.50;6.40;;;;;30.20;99023.00;;;;111022;1248;41143;-65
2022/03/14 10:15:05;;;;;;;12.80;6.30;;;;;29.60;99021.80;;;;111049;1249;41640;-64
2022/03/14 10:17:42;;;;;;;14.60;7.20;;;;;30.04;99021.40;;;;111087;1247;41257;-64
2022/03/14 10:20:25;;;;;;;15.30;6.10;;;;;29.42;99019.60;;;;111105;1247;41188;-67
2022/03/14 10:23:04;;;;;;;11.70;5.50;;;;;29.56;99019.40;;;;111036;1248;41125;-68
2022/03/14 10:25:43;;;;;;;11.00;5.20;;;;;30.34;99019.00;;;;111141;1246;41145;-67
2022/03/14 10:28:32;;;;;;;13.00;6.00;;;;;31.30;99015.40;;;;111031;1247;42367;-65
2022/03/14 10:31:34;;;;;;;13.00;5.40;;;;;32.00;99010.60;;;;111131;1247;41132;-65
2022/03/14 10:34:16;;;;;;;12.80;6.20;;;;;32.84;99010.00;;;;110717;1248;41189;-67
2022/03/14 10:37:05;;;;;;;11.60;5.60;;;;;33.20;99004.00;;;;111017;1248;41149;-64
2022/03/14 10:39:47;;;;;;;11.10;5.30;;;;;33.54;99006.00;;;;111067;1247;42052;-65
2022/03/14 10:42:28;;;;;;;11.30;5.50;;;;;34.20;99006.40;;;;111064;1248;41428;-65
2022/03/14 10:45:17;;;;;;;13.80;6.40;;;;;34.88;99009.20;;;;111055;1247;41271;-68
2022/03/14 10:47:57;;;;;;;11.30;5.20;;;;;34.84;99001.40;;;;111084;1248;42424;-67
2022/03/14 10:50:41;;;;;;;12.20;5.30;;;;;35.08;99004.40;;;;111017;1247;41156;-68
2022/03/14 10:53:33;;;;;;;11.90;5.50;;;;;36.16;98996.00;;;;111131;1247;42359;-67
2022/03/14 10:56:20;;;;;;;13.90;6.40;;;;;36.42;99004.80;;;;111101;1247;41716;-65
2022/03/14 10:59:08;;;;;;;10.20;4.80;;;;;34.00;99013.40;;;;111041;1247;41148;-64
2022/03/14 11:02:06;;;;;;;10.70;4.80;;;;;34.50;99013.00;;;;111069;1247;41617;-63
2022/03/14 11:04:57;;;;;;;10.40;5.00;;;;;35.74;99005.00;;;;110800;1249;42100;-65
2022/03/14 11:07:43;;;;;;;9.80;4.90;;;;;36.16;98999.60;;;;111014;1249;42376;-67
2022/03/14 11:10:20;;;;;;;9.60;4.60;;;;;36.58;98996.40;;;;111195;1246;41155;-65
2022/03/14 11:13:00;;;;;;;13.30;5.30;;;;;36.48;98995.00;;;;111075;1248;41857;-65
2022/03/14 11:15:47;;;;;;;11.60;5.40;;;;;37.10;98999.60;;;;110830;1250;41261;-66
2022/03/14 11:18:29;;;;;;;10.30;4.70;;;;;35.52;98993.80;;;;111227;1247;41183;-69
2022/03/14 11:21:10;;;;;;;10.10;4.90;;;;;35.80;98991.80;;;;110908;1247;41182;-65
2022/03/14 11:23:51;;;;;;;11.90;4.70;;;;;35.24;98987.20;;;;111138;1244;41143;-62
2022/03/14 11:26:31;;;;;;;11.50;5.50;;;;;35.72;98988.40;;;;111091;1247;41688;-63
2022/03/14 11:29:12;;;;;;;11.00;5.70;;;;;35.74;98989.20;;;;111056;1248;41227;-65
2022/03/14 11:31:49;;;;;;;10.30;4.90;;;;;34.32;98987.20;;;;111129;1247;41600;-65
2022/03/14 11:34:26;;;;;;;10.30;4.70;;;;;34.18;98983.80;;;;110890;1250;41613;-66
2022/03/14 11:37:04;;;;;;;12.50;5.30;;;;;34.74;98979.80;;;;111096;1248;41505;-63
2022/03/14 11:39:41;;;;;;;10.90;4.60;;;;;35.66;98978.80;;;;111156;1247;41419;-64
2022/03/14 11:42:23;;;;;;;21.30;6.70;;;;;36.16;98978.00;;;;111079;1248;41367;-64
2022/03/14 11:44:57;;;;;;;11.80;5.80;;;;;36.20;98976.20;;;;111144;1248;41163;-65
2022/03/14 11:47:38;;;;;;;10.60;5.30;;;;;34.04;98975.40;;;;110891;1249;41785;-65
2022/03/14 11:50:16;;;;;;;11.20;4.20;;;;;33.30;98970.40;;;;110991;1249;41499;-64
2022/03/14 11:52:52;;;;;;;10.80;5.20;;;;;33.86;98969.60;;;;111146;1248;41122;-68
2022/03/14 11:55:30;;;;;;;10.20;4.80;;;;;34.68;98967.20;;;;110883;1250;41147;-67
2022/03/14 11:58:43;;;;;;;11.30;5.10;;;;;34.56;98958.80;;;;111079;1248;41146;-65
2022/03/14 12:01:33;;;;;;;10.40;4.60;;;;;34.30;98963.20;;;;111124;1248;41254;-66
2022/03/14 12:04:30;;;;;;;9.80;4.70;;;;;34.42;98960.40;;;;111130;1246;41377;-65
2022/03/14 12:07:13;;;;;;;9.70;4.50;;;;;34.96;98961.40;;;;111105;1248;41389;-65
2022/03/14 12:09:50;;;;;;;9.90;4.90;;;;;35.20;98954.00;;;;111086;1248;41145;-65
2022/03/14 12:12:31;;;;;;;10.50;4.80;;;;;35.44;98953.40;;;;111154;1247;41384;-65
2022/03/14 12:15:08;;;;;;;10.00;4.80;;;;;35.70;98954.00;;;;111108;1247;41315;-64
2022/03/14 12:17:48;;;;;;;11.20;5.10;;;;;35.90;98952.20;;;;110948;1249;41139;-65
2022/03/14 12:20:24;;;;;;;14.40;5.30;;;;;35.64;98949.80;;;;111118;1248;41252;-65
2022/03/14 12:23:25;;;;;;;12.20;5.90;;;;;35.10;98947.00;;;;110914;1250;41170;-66
2022/03/14 12:26:27;;;;;;;11.00;5.40;;;;;34.80;98943.40;;;;111135;1249;42015;-64
2022/03/14 12:29:35;;;;;;;12.40;5.30;;;;;34.12;98944.40;;;;110865;1248;41151;-67
2022/03/14 12:32:31;;;;;;;9.90;4.90;;;;;33.70;98942.60;;;;110994;1248;41144;-65
2022/03/14 12:35:33;;;;;;;11.20;5.40;;;;;33.26;98933.20;;;;111220;1247;41310;-64
2022/03/14 12:38:21;;;;;;;12.00;5.60;;;;;32.24;98942.60;;;;110932;1247;41296;-66
2022/03/14 12:40:57;;;;;;;15.90;5.40;;;;;31.84;98947.00;;;;111084;1249;41956;-65
2022/03/14 12:43:34;;;;;;;11.50;5.50;;;;;31.04;98950.80;;;;111121;1248;41540;-65
2022/03/14 12:46:13;;;;;;;12.60;5.60;;;;;30.72;98948.20;;;;111094;1248;41167;-65
2022/03/14 12:48:55;;;;;;;14.10;6.30;;;;;30.14;98950.00;;;;111046;1250;41261;-65
2022/03/14 12:51:43;;;;;;;13.30;6.00;;;;;29.44;98949.60;;;;111114;1248;41820;-66
2022/03/14 12:54:34;;;;;;;11.50;5.40;;;;;28.66;98944.00;;;;111073;1250;41137;-65
2022/03/14 12:57:27;;;;;;;14.30;6.30;;;;;28.30;98948.00;;;;111024;1248;41179;-66
2022/03/14 13:00:04;;;;;;;13.30;6.10;;;;;27.74;98942.00;;;;111099;1248;41383;-66
2022/03/14 13:02:44;;;;;;;14.10;6.30;;;;;27.14;98950.00;;;;111047;1247;41264;-66
2022/03/14 13:05:30;;;;;;;18.40;6.50;;;;;26.50;98958.00;;;;111135;1248;41140;-62
2022/03/14 13:08:11;;;;;;;13.10;6.00;;;;;25.94;98952.80;;;;111035;1248;41761;-64
2022/03/14 13:11:02;;;;;;;13.80;6.40;;;;;25.28;98951.60;;;;111065;1248;41241;-65
2022/03/14 13:13:38;;;;;;;13.00;6.30;;;;;24.90;98951.80;;;;110859;1249;41847;-67
2022/03/14 13:16:18;;;;;;;12.80;6.30;;;;;24.62;98951.40;;;;110883;1249;42377;-65